CheckWX is a tool to help pilots better visualize weather data.  It is not intended as a substitute for an official pre-flight weather briefing.

05:50:33 UTC

CYGV TAF
Havre St Pierre Airport
Havre St-Pierre, Canada
TAF CYGV 240141Z 2402/2414 31010KT P6SM SKC BECMG 2402/2404 30005KT RMK FCST BASED ON AUTO OBS. NXT FCST BY 240800Z

Feb-24@
02:00 UTC

Feb-24 @ 02:00 UTC

Feb-24@
14:00 UTC

Feb-24 @ 14:00 UTC

TAF CYGV 240141Z 2402/2414 31010KT P6SM SKC
Wind
  • 310° at 10 KTS
Cloud Levels
  • Clear skies

Feb-24@
02:00 UTC

Feb-24 @ 02:00 UTC

Feb-24@
14:00 UTC

Feb-24 @ 14:00 UTC

BECMG 2402/2404 30005KT RMK FCST BASED ON AUTO OBS. NXT FCST BY 240800Z

Becoming

Becoming Conditions expected by Sun, Feb 24, 2019 @ 04:00 UTC

Wind
  • 300° at 5 KTS
Cloud Levels
  • Clear skies